createdAt,value
2022-08-27T00:01:42.515Z,23.94
2022-08-27T00:04:10.617Z,23.92
2022-08-27T00:06:38.678Z,23.88
2022-08-27T00:09:06.832Z,23.86
2022-08-27T00:11:34.788Z,23.83
2022-08-27T00:14:03.006Z,23.80
2022-08-27T00:16:31.031Z,23.69
2022-08-27T00:19:00.711Z,23.64
2022-08-27T00:21:28.691Z,23.57
2022-08-27T00:23:56.724Z,23.49
2022-08-27T00:26:24.738Z,23.43
2022-08-27T00:28:52.858Z,23.36
2022-08-27T00:31:27.147Z,23.36
2022-08-27T00:33:55.816Z,23.35
2022-08-27T00:36:25.351Z,23.33
2022-08-27T00:38:53.885Z,23.30
2022-08-27T00:41:22.282Z,23.23
2022-08-27T00:43:52.529Z,23.26
2022-08-27T00:46:23.658Z,23.27
2022-08-27T00:48:52.881Z,23.31
2022-08-27T00:51:22.248Z,23.31
2022-08-27T00:53:51.922Z,23.32
2022-08-27T00:56:21.525Z,23.35
2022-08-27T00:58:51.778Z,23.36
2022-08-27T01:01:26.215Z,23.38
2022-08-27T01:03:56.525Z,23.43
2022-08-27T01:06:25.444Z,23.46
2022-08-27T01:08:57.319Z,23.46
2022-08-27T01:11:25.989Z,23.40
2022-08-27T01:14:00.030Z,23.49
2022-08-27T01:16:31.332Z,23.49
2022-08-27T01:19:00.977Z,23.48
2022-08-27T01:21:31.683Z,23.47
2022-08-27T01:24:04.383Z,23.45
2022-08-27T01:26:33.789Z,23.47
2022-08-27T01:29:01.757Z,23.47
2022-08-27T01:31:29.906Z,23.34
2022-08-27T01:33:59.262Z,23.21
2022-08-27T01:36:27.358Z,23.09
2022-08-27T01:38:55.907Z,22.97
2022-08-27T01:41:25.569Z,22.86
2022-08-27T01:43:54.938Z,22.74
2022-08-27T01:46:23.239Z,22.62
2022-08-27T01:48:51.252Z,22.53
2022-08-27T01:51:19.617Z,22.47
2022-08-27T01:53:47.746Z,22.40
2022-08-27T01:56:15.765Z,22.37
2022-08-27T01:58:43.817Z,22.32
2022-08-27T02:01:14.065Z,22.22
2022-08-27T02:03:42.267Z,22.24
2022-08-27T02:06:11.445Z,22.25
2022-08-27T02:08:39.475Z,22.23
2022-08-27T02:11:08.332Z,22.20
2022-08-27T02:13:36.613Z,22.19
2022-08-27T02:16:05.329Z,22.17
2022-08-27T02:18:37.073Z,22.17
2022-08-27T02:21:05.420Z,22.13
2022-08-27T02:23:33.405Z,22.12
2022-08-27T02:26:01.608Z,22.08
2022-08-27T02:28:29.627Z,22.02
2022-08-27T02:30:57.631Z,21.98
2022-08-27T02:33:26.691Z,21.92
2022-08-27T02:35:56.099Z,21.83
2022-08-27T02:38:25.737Z,21.86
2022-08-27T02:40:54.643Z,21.87
2022-08-27T02:43:24.956Z,21.87
2022-08-27T02:45:53.705Z,21.88
2022-08-27T02:48:21.806Z,21.86
2022-08-27T02:50:49.826Z,21.83
2022-08-27T02:53:19.704Z,21.85
2022-08-27T02:55:47.867Z,21.83
2022-08-27T02:58:17.002Z,21.83
2022-08-27T03:00:45.266Z,21.81
2022-08-27T03:03:13.317Z,21.81
2022-08-27T03:05:41.362Z,21.81
2022-08-27T03:08:10.090Z,21.81
2022-08-27T03:10:40.104Z,21.79
2022-08-27T03:13:08.204Z,21.80
2022-08-27T03:15:36.185Z,21.78
2022-08-27T03:18:18.350Z,21.74
2022-08-27T03:20:47.675Z,21.72
2022-08-27T03:23:16.163Z,21.61
2022-08-27T03:25:46.567Z,21.68
2022-08-27T03:28:22.592Z,21.69
2022-08-27T03:30:52.260Z,21.69
2022-08-27T03:33:20.489Z,21.57
2022-08-27T03:35:51.666Z,21.68
2022-08-27T03:38:20.139Z,21.70
2022-08-27T03:40:50.352Z,21.71
2022-08-27T03:43:18.498Z,21.74
2022-08-27T03:45:52.932Z,21.76
2022-08-27T03:48:30.504Z,21.80
2022-08-27T03:50:58.500Z,21.85
2022-08-27T03:53:26.655Z,21.93
2022-08-27T03:55:56.052Z,21.98
2022-08-27T03:58:24.076Z,22.06
2022-08-27T04:00:52.092Z,22.16
2022-08-27T04:03:20.057Z,22.24
2022-08-27T04:05:52.807Z,22.35
2022-08-27T04:08:21.696Z,22.48
2022-08-27T04:10:50.003Z,22.59
2022-08-27T04:13:19.412Z,22.75
2022-08-27T04:15:48.269Z,22.88
2022-08-27T04:18:16.769Z,23.05
2022-08-27T04:20:44.889Z,23.24
2022-08-27T04:23:13.125Z,23.41
2022-08-27T04:25:41.501Z,23.54
2022-08-27T04:28:09.722Z,23.63
2022-08-27T04:30:41.502Z,23.72
2022-08-27T04:33:09.509Z,23.81
2022-08-27T04:35:37.904Z,23.93
2022-08-27T04:38:05.911Z,24.20
2022-08-27T04:40:47.981Z,24.64
2022-08-27T04:43:17.703Z,25.07
2022-08-27T04:45:48.076Z,25.66
2022-08-27T04:48:17.161Z,25.88
2022-08-27T04:50:46.293Z,26.13
2022-08-27T04:53:14.686Z,26.24
2022-08-27T04:55:44.392Z,26.21
2022-08-27T04:58:12.491Z,26.06
2022-08-27T05:00:44.391Z,25.93
2022-08-27T05:03:14.096Z,26.00
2022-08-27T05:05:42.892Z,25.82
2022-08-27T05:08:13.176Z,25.79
2022-08-27T05:10:42.507Z,25.85
2022-08-27T05:13:10.573Z,25.87
2022-08-27T05:15:38.608Z,25.82
2022-08-27T05:18:07.137Z,25.80
2022-08-27T05:20:42.314Z,25.80
2022-08-27T05:23:10.914Z,25.76
2022-08-27T05:25:39.543Z,25.85
2022-08-27T05:28:07.590Z,25.87
2022-08-27T05:30:38.675Z,25.89
2022-08-27T05:33:07.604Z,26.10
2022-08-27T05:35:42.412Z,26.26
2022-08-27T05:38:10.659Z,26.43
2022-08-27T05:40:38.870Z,26.57
2022-08-27T05:43:07.039Z,26.62
2022-08-27T05:45:35.184Z,26.87
2022-08-27T05:48:03.549Z,26.93
2022-08-27T05:50:31.613Z,27.25
2022-08-27T05:53:00.977Z,27.46
2022-08-27T05:55:29.060Z,27.55
2022-08-27T05:57:57.035Z,27.84
2022-08-27T06:00:42.462Z,28.03
2022-08-27T06:03:11.860Z,28.10
2022-08-27T06:05:40.011Z,28.21
2022-08-27T06:08:09.508Z,28.37
2022-08-27T06:10:41.134Z,28.49
2022-08-27T06:13:09.147Z,28.71
2022-08-27T06:15:37.291Z,28.97
2022-08-27T06:18:05.558Z,28.95
2022-08-27T06:20:33.650Z,29.15
2022-08-27T06:23:01.666Z,29.52
2022-08-27T06:25:32.317Z,29.55
2022-08-27T06:28:02.930Z,29.64
2022-08-27T06:30:30.944Z,29.57
2022-08-27T06:32:59.180Z,29.75
2022-08-27T06:35:30.137Z,29.73
2022-08-27T06:38:00.382Z,29.93
2022-08-27T06:40:28.473Z,30.08
2022-08-27T06:42:57.946Z,30.23
2022-08-27T06:45:25.979Z,30.78
2022-08-27T06:47:55.772Z,31.00
2022-08-27T06:50:27.166Z,31.62
2022-08-27T06:52:55.512Z,32.28
2022-08-27T06:55:23.593Z,32.03
2022-08-27T06:57:51.563Z,32.80
2022-08-27T07:00:22.271Z,33.13
2022-08-27T07:02:51.428Z,32.89
2022-08-27T07:05:19.666Z,32.11
2022-08-27T07:07:48.903Z,31.91
2022-08-27T07:10:17.042Z,31.10
2022-08-27T07:12:45.006Z,30.57
2022-08-27T07:15:13.718Z,30.40
2022-08-27T07:17:44.753Z,30.54
2022-08-27T07:20:12.827Z,30.46
2022-08-27T07:22:40.881Z,30.51
2022-08-27T07:25:10.907Z,30.44
2022-08-27T07:27:39.288Z,30.38
2022-08-27T07:30:08.672Z,30.48
2022-08-27T07:32:36.777Z,30.75
2022-08-27T07:35:09.498Z,30.82
2022-08-27T07:37:37.575Z,31.04
2022-08-27T07:40:06.507Z,31.06
2022-08-27T07:42:51.901Z,30.87
2022-08-27T07:45:19.949Z,30.99
2022-08-27T07:47:47.916Z,31.10
2022-08-27T07:50:17.525Z,31.14
2022-08-27T07:52:45.492Z,31.20
2022-08-27T07:55:13.567Z,31.28
2022-08-27T07:57:42.151Z,31.53
2022-08-27T08:00:11.142Z,31.60
2022-08-27T08:02:39.291Z,32.09
2022-08-27T08:05:07.980Z,32.14
2022-08-27T08:07:38.524Z,32.35
2022-08-27T08:10:07.828Z,32.20
2022-08-27T08:12:36.854Z,31.83
2022-08-27T08:15:05.252Z,32.02
2022-08-27T08:17:34.017Z,32.08
2022-08-27T08:20:21.459Z,32.14
2022-08-27T08:22:51.429Z,32.11
2022-08-27T08:25:19.637Z,32.06
2022-08-27T08:27:48.206Z,32.19
2022-08-27T08:30:16.189Z,32.22
2022-08-27T08:32:44.656Z,32.13
2022-08-27T08:35:12.845Z,32.18
2022-08-27T08:37:40.851Z,32.15
2022-08-27T08:40:11.756Z,32.31
2022-08-27T08:42:42.325Z,32.53
2022-08-27T08:45:16.448Z,32.66
2022-08-27T08:47:46.378Z,32.67
2022-08-27T08:50:19.949Z,32.68
2022-08-27T08:52:52.083Z,32.65
2022-08-27T08:55:31.959Z,32.64
2022-08-27T08:58:10.934Z,32.61
2022-08-27T09:00:40.562Z,32.76
2022-08-27T09:03:08.690Z,32.94
2022-08-27T09:05:37.352Z,32.99
2022-08-27T09:08:32.100Z,32.97
2022-08-27T09:11:00.908Z,33.08
2022-08-27T09:13:31.019Z,33.11
2022-08-27T09:16:01.111Z,33.23
2022-08-27T09:18:29.430Z,33.25
2022-08-27T09:21:08.816Z,33.42
2022-08-27T09:23:41.170Z,33.45
2022-08-27T09:26:20.583Z,33.62
2022-08-27T09:29:08.138Z,33.85
2022-08-27T09:31:37.338Z,33.95
2022-08-27T09:34:06.210Z,33.87
2022-08-27T09:36:34.235Z,33.97
2022-08-27T09:39:05.487Z,34.16
2022-08-27T09:41:39.080Z,34.17
2022-08-27T09:44:10.407Z,34.23
2022-08-27T09:46:38.425Z,34.21
2022-08-27T09:49:11.722Z,34.22
2022-08-27T09:51:41.143Z,34.38
2022-08-27T09:54:09.296Z,34.36
2022-08-27T09:56:41.344Z,34.67
2022-08-27T09:59:10.251Z,35.22
2022-08-27T10:01:39.703Z,35.65
2022-08-27T10:04:09.945Z,36.18
2022-08-27T10:06:38.563Z,36.36
2022-08-27T10:09:09.908Z,36.60
2022-08-27T10:11:41.538Z,36.40
2022-08-27T10:14:13.926Z,36.13
2022-08-27T10:16:47.774Z,35.86
2022-08-27T10:19:20.088Z,35.97
2022-08-27T10:21:50.335Z,35.76
2022-08-27T10:24:22.786Z,35.62
2022-08-27T10:26:53.691Z,35.66
2022-08-27T10:29:26.694Z,35.65
2022-08-27T10:32:01.426Z,35.50
2022-08-27T10:34:33.561Z,35.60
2022-08-27T10:37:11.710Z,35.86
2022-08-27T10:39:55.579Z,36.52
2022-08-27T10:42:27.824Z,36.71
2022-08-27T10:45:05.333Z,36.84
2022-08-27T10:47:56.768Z,36.96
2022-08-27T10:50:29.095Z,36.35
2022-08-27T10:53:01.004Z,36.35
2022-08-27T10:55:31.919Z,36.36
2022-08-27T10:58:18.648Z,36.49
2022-08-27T11:00:50.229Z,36.53
2022-08-27T11:03:22.126Z,36.77
2022-08-27T11:05:51.262Z,37.05
2022-08-27T11:08:21.073Z,36.91
2022-08-27T11:10:50.440Z,36.80
2022-08-27T11:13:21.883Z,36.54
2022-08-27T11:15:52.162Z,36.93
2022-08-27T11:18:21.959Z,36.94
2022-08-27T11:20:54.419Z,37.04
2022-08-27T11:23:24.810Z,37.34
2022-08-27T11:25:55.803Z,37.63
2022-08-27T11:28:32.036Z,37.58
2022-08-27T11:31:02.379Z,37.48
2022-08-27T11:33:33.913Z,37.30
2022-08-27T11:36:18.444Z,37.13
2022-08-27T11:38:50.040Z,37.07
2022-08-27T11:41:29.403Z,37.46
2022-08-27T11:44:11.711Z,37.51
2022-08-27T11:46:44.048Z,38.21
2022-08-27T11:49:12.134Z,38.70
2022-08-27T11:51:40.887Z,34.60
2022-08-27T11:54:10.753Z,40.26
2022-08-27T11:56:41.475Z,41.27
2022-08-27T11:59:21.648Z,41.17
2022-08-27T12:01:49.884Z,42.61
2022-08-27T12:04:33.795Z,43.23
2022-08-27T12:07:03.558Z,43.85
2022-08-27T12:09:41.702Z,43.42
2022-08-27T12:12:15.682Z,43.86
2022-08-27T12:14:47.232Z,43.45
2022-08-27T12:17:22.331Z,44.05
2022-08-27T12:19:57.678Z,44.63
2022-08-27T12:22:59.754Z,44.07
2022-08-27T12:25:27.884Z,44.26
2022-08-27T12:27:57.478Z,44.53
2022-08-27T12:30:31.237Z,43.56
2022-08-27T12:32:59.621Z,43.32
2022-08-27T12:35:30.813Z,44.21
2022-08-27T12:38:08.499Z,44.82
2022-08-27T12:40:40.344Z,45.00
2022-08-27T12:43:09.113Z,44.11
2022-08-27T12:45:44.500Z,44.57
2022-08-27T12:48:12.615Z,43.78
2022-08-27T12:50:40.817Z,43.41
2022-08-27T12:53:36.374Z,44.09
2022-08-27T12:56:13.431Z,43.78
2022-08-27T12:58:45.621Z,43.77
2022-08-27T13:01:26.740Z,43.66
2022-08-27T13:03:55.354Z,42.84
2022-08-27T13:06:24.372Z,41.66
2022-08-27T13:08:54.636Z,39.62
2022-08-27T13:11:25.272Z,39.31
2022-08-27T13:13:53.382Z,38.58
2022-08-27T13:16:23.045Z,38.33
2022-08-27T13:18:51.146Z,37.80
2022-08-27T13:21:21.496Z,37.34
2022-08-27T13:23:54.099Z,36.68
2022-08-27T13:26:23.063Z,36.38
2022-08-27T13:28:51.808Z,36.27
2022-08-27T13:31:22.771Z,35.88
2022-08-27T13:33:50.920Z,35.86
2022-08-27T13:36:27.763Z,35.67
2022-08-27T13:39:02.173Z,35.50
2022-08-27T13:41:31.816Z,35.29
2022-08-27T13:43:59.822Z,35.27
2022-08-27T13:46:31.015Z,35.12
2022-08-27T13:48:59.872Z,35.09
2022-08-27T13:51:29.567Z,35.06
2022-08-27T13:54:15.431Z,34.96
2022-08-27T13:56:57.603Z,34.90
2022-08-27T13:59:30.487Z,34.70
2022-08-27T14:02:02.015Z,34.56
2022-08-27T14:04:38.516Z,34.53
2022-08-27T14:07:12.953Z,34.40
2022-08-27T14:09:50.010Z,34.35
2022-08-27T14:12:32.785Z,34.37
2022-08-27T14:15:01.955Z,34.34
2022-08-27T14:17:38.225Z,34.32
2022-08-27T14:20:07.305Z,34.33
2022-08-27T14:22:37.400Z,34.31
2022-08-27T14:25:06.571Z,34.26
2022-08-27T14:27:36.297Z,34.27
2022-08-27T14:30:04.786Z,34.24
2022-08-27T14:32:34.177Z,34.15
2022-08-27T14:35:02.210Z,34.12
2022-08-27T14:37:33.020Z,34.05
2022-08-27T14:40:01.067Z,33.97
2022-08-27T14:42:29.137Z,33.88
2022-08-27T14:44:57.386Z,33.82
2022-08-27T14:47:31.118Z,33.75
2022-08-27T14:50:02.767Z,33.67
2022-08-27T14:52:30.800Z,33.54
2022-08-27T14:54:58.792Z,33.41
2022-08-27T14:57:26.892Z,33.35
2022-08-27T14:59:54.892Z,33.35
2022-08-27T15:02:23.318Z,33.28
2022-08-27T15:04:51.393Z,33.19
2022-08-27T15:07:22.736Z,33.11
2022-08-27T15:09:51.579Z,33.05
2022-08-27T15:12:26.042Z,32.97
2022-08-27T15:14:54.783Z,32.95
2022-08-27T15:17:35.171Z,32.90
2022-08-27T15:20:04.460Z,32.76
2022-08-27T15:22:34.282Z,32.76
2022-08-27T15:25:02.986Z,32.68
2022-08-27T15:27:38.669Z,32.68
2022-08-27T15:30:07.577Z,32.65
2022-08-27T15:32:36.782Z,32.61
2022-08-27T15:35:08.031Z,32.46
2022-08-27T15:37:37.429Z,32.46
2022-08-27T15:40:06.373Z,32.35
2022-08-27T15:42:34.402Z,32.26
2022-08-27T15:45:02.416Z,32.22
2022-08-27T15:47:30.426Z,32.18
2022-08-27T15:49:58.722Z,32.11
2022-08-27T15:52:36.412Z,32.07
2022-08-27T15:55:14.223Z,32.00
2022-08-27T15:57:42.260Z,31.96
2022-08-27T16:00:11.660Z,31.87
2022-08-27T16:02:39.871Z,31.80
2022-08-27T16:05:09.587Z,31.69
2022-08-27T16:07:37.585Z,31.61
2022-08-27T16:10:06.707Z,31.53
2022-08-27T16:12:36.258Z,31.51
2022-08-27T16:15:05.886Z,31.41
2022-08-27T16:17:33.919Z,31.35
2022-08-27T16:20:01.940Z,31.23
2022-08-27T16:22:30.086Z,31.10
2022-08-27T16:24:58.099Z,31.08
2022-08-27T16:27:26.216Z,30.96
2022-08-27T16:29:55.713Z,30.85
2022-08-27T16:32:25.916Z,30.72
2022-08-27T16:34:55.958Z,30.60
2022-08-27T16:37:24.408Z,30.47
2022-08-27T16:39:52.441Z,30.35
2022-08-27T16:42:20.752Z,30.22
2022-08-27T16:44:48.799Z,30.10
2022-08-27T16:47:18.179Z,29.92
2022-08-27T16:50:03.457Z,29.76
2022-08-27T16:52:31.485Z,29.55
2022-08-27T16:55:00.254Z,29.41
2022-08-27T16:57:28.420Z,29.24
2022-08-27T16:59:56.431Z,29.07
2022-08-27T17:02:30.769Z,28.92
2022-08-27T17:05:07.312Z,28.74
2022-08-27T17:07:48.963Z,28.58
2022-08-27T17:10:17.767Z,28.45
2022-08-27T17:12:46.309Z,28.33
2022-08-27T17:15:14.963Z,28.21
2022-08-27T17:17:44.425Z,28.06
2022-08-27T17:20:12.923Z,27.87
2022-08-27T17:22:40.892Z,27.74
2022-08-27T17:25:09.670Z,27.61
2022-08-27T17:27:37.675Z,27.48
2022-08-27T17:30:06.848Z,27.33
2022-08-27T17:32:37.302Z,27.20
2022-08-27T17:35:07.523Z,27.01
2022-08-27T17:37:35.728Z,26.85
2022-08-27T17:40:04.287Z,26.71
2022-08-27T17:42:32.406Z,26.64
2022-08-27T17:45:00.515Z,26.55
2022-08-27T17:47:29.936Z,26.44
2022-08-27T17:49:58.495Z,26.38
2022-08-27T17:52:27.904Z,26.27
2022-08-27T17:54:56.770Z,26.17
2022-08-27T17:57:25.975Z,26.09
2022-08-27T17:59:54.516Z,26.02
2022-08-27T18:02:24.888Z,25.92
2022-08-27T18:04:52.919Z,25.85
2022-08-27T18:07:20.986Z,25.80
2022-08-27T18:09:50.535Z,25.72
2022-08-27T18:12:20.369Z,25.64
2022-08-27T18:14:49.912Z,25.53
2022-08-27T18:17:17.938Z,25.49
2022-08-27T18:19:46.197Z,25.41
2022-08-27T18:22:18.657Z,25.35
2022-08-27T18:24:46.688Z,25.29
2022-08-27T18:27:16.022Z,25.25
2022-08-27T18:29:44.008Z,25.19
2022-08-27T18:32:12.449Z,25.14
2022-08-27T18:34:40.801Z,25.09
2022-08-27T18:37:08.921Z,25.05
2022-08-27T18:39:39.571Z,25.00
2022-08-27T18:42:07.790Z,24.99
2022-08-27T18:44:38.573Z,24.96
2022-08-27T18:47:06.860Z,24.90
2022-08-27T18:49:34.826Z,24.85
2022-08-27T18:52:02.859Z,24.80
2022-08-27T18:54:30.850Z,24.76
2022-08-27T18:56:58.854Z,24.74
2022-08-27T18:59:27.464Z,24.71
2022-08-27T19:01:57.190Z,24.68
2022-08-27T19:04:25.666Z,24.67
2022-08-27T19:06:53.621Z,24.61
2022-08-27T19:09:21.653Z,24.59
2022-08-27T19:11:51.584Z,24.55
2022-08-27T19:14:19.616Z,24.50
2022-08-27T19:16:48.533Z,24.48
2022-08-27T19:19:17.966Z,24.46
2022-08-27T19:21:51.162Z,24.42
2022-08-27T19:24:19.733Z,24.40
2022-08-27T19:26:47.828Z,24.32
2022-08-27T19:29:15.856Z,24.29
2022-08-27T19:31:43.881Z,24.26
2022-08-27T19:34:11.901Z,24.27
2022-08-27T19:36:42.706Z,24.23
2022-08-27T19:39:11.415Z,24.21
2022-08-27T19:41:39.483Z,24.20
2022-08-27T19:44:07.492Z,24.13
2022-08-27T19:46:36.772Z,24.14
2022-08-27T19:49:04.867Z,24.15
2022-08-27T19:51:32.994Z,24.16
2022-08-27T19:54:02.356Z,24.12
2022-08-27T19:56:32.727Z,24.14
2022-08-27T19:59:10.871Z,24.14
2022-08-27T20:01:41.774Z,24.11
2022-08-27T20:04:09.820Z,24.10
2022-08-27T20:06:37.949Z,24.10
2022-08-27T20:09:09.850Z,24.14
2022-08-27T20:11:37.846Z,24.15
2022-08-27T20:14:05.845Z,24.15
2022-08-27T20:16:38.332Z,24.12
2022-08-27T20:19:06.810Z,24.16
2022-08-27T20:21:34.811Z,24.13
2022-08-27T20:24:03.025Z,24.19
2022-08-27T20:26:33.074Z,24.17
2022-08-27T20:29:01.503Z,24.22
2022-08-27T20:31:30.387Z,24.26
2022-08-27T20:33:58.500Z,24.25
2022-08-27T20:36:28.409Z,24.29
2022-08-27T20:38:56.502Z,24.34
2022-08-27T20:41:24.573Z,24.31
2022-08-27T20:43:53.975Z,24.42
2022-08-27T20:46:22.995Z,24.46
2022-08-27T20:48:51.033Z,24.43
2022-08-27T20:51:19.046Z,24.43
2022-08-27T20:53:47.041Z,24.39
2022-08-27T20:56:15.167Z,24.37
2022-08-27T20:59:00.391Z,24.33
2022-08-27T21:01:29.865Z,24.40
2022-08-27T21:03:58.101Z,24.36
2022-08-27T21:06:26.650Z,24.32
2022-08-27T21:08:54.747Z,24.28
2022-08-27T21:11:22.780Z,24.22
2022-08-27T21:13:56.141Z,24.13
2022-08-27T21:16:25.164Z,24.09
2022-08-27T21:18:55.701Z,24.07
2022-08-27T21:21:23.764Z,24.13
2022-08-27T21:23:51.864Z,24.14
2022-08-27T21:26:22.193Z,24.18
2022-08-27T21:28:50.207Z,24.16
2022-08-27T21:31:23.992Z,24.11
2022-08-27T21:33:52.045Z,24.19
2022-08-27T21:36:21.531Z,24.19
2022-08-27T21:38:49.516Z,24.20
2022-08-27T21:41:17.521Z,24.13
2022-08-27T21:43:45.535Z,24.08
2022-08-27T21:46:13.579Z,24.00
2022-08-27T21:48:41.626Z,23.88
2022-08-27T21:51:10.027Z,23.77
2022-08-27T21:53:39.413Z,23.63
2022-08-27T21:56:07.685Z,23.46
2022-08-27T21:58:35.760Z,23.32
2022-08-27T22:01:05.506Z,23.22
2022-08-27T22:03:33.878Z,23.02
2022-08-27T22:06:01.856Z,22.97
2022-08-27T22:08:29.898Z,22.88
2022-08-27T22:10:59.463Z,22.83
2022-08-27T22:13:27.470Z,22.76
2022-08-27T22:15:55.522Z,22.68
2022-08-27T22:18:23.909Z,22.70
2022-08-27T22:20:52.159Z,22.65
2022-08-27T22:23:20.169Z,22.69
2022-08-27T22:25:48.968Z,22.71
2022-08-27T22:28:18.444Z,22.71
2022-08-27T22:30:46.770Z,22.73
2022-08-27T22:33:14.921Z,22.75
2022-08-27T22:35:42.995Z,22.72
2022-08-27T22:38:11.106Z,22.69
2022-08-27T22:40:39.405Z,22.62
2022-08-27T22:43:07.447Z,22.50
2022-08-27T22:45:36.819Z,22.37
2022-08-27T22:48:05.190Z,22.25
2022-08-27T22:50:33.306Z,22.12
2022-08-27T22:53:01.323Z,22.00
2022-08-27T22:55:29.393Z,21.94
2022-08-27T22:57:57.453Z,21.88
2022-08-27T23:00:26.582Z,21.84
2022-08-27T23:02:55.962Z,21.80
2022-08-27T23:05:24.650Z,21.79
2022-08-27T23:07:54.890Z,21.78
2022-08-27T23:10:24.191Z,21.75
2022-08-27T23:12:53.678Z,21.73
2022-08-27T23:15:22.794Z,21.73
2022-08-27T23:17:50.841Z,21.75
2022-08-27T23:20:21.882Z,21.73
2022-08-27T23:22:49.994Z,21.73
2022-08-27T23:25:35.588Z,21.68
2022-08-27T23:28:06.444Z,21.61
2022-08-27T23:30:34.941Z,21.56
2022-08-27T23:33:02.962Z,21.53
2022-08-27T23:35:32.334Z,21.51
2022-08-27T23:38:00.395Z,21.49
2022-08-27T23:40:28.528Z,21.49
2022-08-27T23:42:56.651Z,21.52
2022-08-27T23:45:25.944Z,21.56
2022-08-27T23:47:55.099Z,21.53
2022-08-27T23:50:26.395Z,21.52
2022-08-27T23:53:03.852Z,21.49
2022-08-27T23:55:32.469Z,21.48
2022-08-27T23:58:01.015Z,21.44
